sensor_id;sensor_type;location;lat;lon;timestamp;temperature;humidity
55313;DHT22;46892;45.668;11.756;2023-05-07T00:00:26;16.90;76.10
55313;DHT22;46892;45.668;11.756;2023-05-07T00:02:52;17.00;75.90
55313;DHT22;46892;45.668;11.756;2023-05-07T00:05:18;16.80;76.20
55313;DHT22;46892;45.668;11.756;2023-05-07T00:07:44;16.80;76.40
55313;DHT22;46892;45.668;11.756;2023-05-07T00:10:10;16.80;76.30
55313;DHT22;46892;45.668;11.756;2023-05-07T00:12:37;16.80;77.20
55313;DHT22;46892;45.668;11.756;2023-05-07T00:15:03;16.80;78.20
55313;DHT22;46892;45.668;11.756;2023-05-07T00:17:29;16.80;78.40
55313;DHT22;46892;45.668;11.756;2023-05-07T00:19:55;16.90;78.10
55313;DHT22;46892;45.668;11.756;2023-05-07T00:22:21;16.90;77.90
55313;DHT22;46892;45.668;11.756;2023-05-07T00:24:46;16.90;78.60
55313;DHT22;46892;45.668;11.756;2023-05-07T00:27:12;16.80;78.70
55313;DHT22;46892;45.668;11.756;2023-05-07T00:29:38;16.80;78.50
55313;DHT22;46892;45.668;11.756;2023-05-07T00:32:04;16.80;78.50
55313;DHT22;46892;45.668;11.756;2023-05-07T00:34:30;16.80;79.10
55313;DHT22;46892;45.668;11.756;2023-05-07T00:36:55;16.80;79.20
55313;DHT22;46892;45.668;11.756;2023-05-07T00:39:21;16.80;79.30
55313;DHT22;46892;45.668;11.756;2023-05-07T00:41:47;16.80;78.90
55313;DHT22;46892;45.668;11.756;2023-05-07T00:44:13;16.80;77.90
55313;DHT22;46892;45.668;11.756;2023-05-07T00:46:38;16.80;77.70
55313;DHT22;46892;45.668;11.756;2023-05-07T00:49:04;16.90;77.50
55313;DHT22;46892;45.668;11.756;2023-05-07T00:51:30;16.80;78.50
55313;DHT22;46892;45.668;11.756;2023-05-07T00:53:56;16.80;78.30
55313;DHT22;46892;45.668;11.756;2023-05-07T00:56:22;16.80;78.80
55313;DHT22;46892;45.668;11.756;2023-05-07T00:58:49;16.90;79.40
55313;DHT22;46892;45.668;11.756;2023-05-07T01:01:14;16.90;78.90
55313;DHT22;46892;45.668;11.756;2023-05-07T01:03:43;17.00;79.30
55313;DHT22;46892;45.668;11.756;2023-05-07T01:06:10;16.90;79.30
55313;DHT22;46892;45.668;11.756;2023-05-07T01:08:41;16.90;79.20
55313;DHT22;46892;45.668;11.756;2023-05-07T01:11:08;16.90;79.40
55313;DHT22;46892;45.668;11.756;2023-05-07T01:13:35;16.80;78.60
55313;DHT22;46892;45.668;11.756;2023-05-07T01:16:02;16.90;77.90
55313;DHT22;46892;45.668;11.756;2023-05-07T01:18:28;16.90;78.10
55313;DHT22;46892;45.668;11.756;2023-05-07T01:20:58;16.90;78.50
55313;DHT22;46892;45.668;11.756;2023-05-07T01:23:25;16.80;79.10
55313;DHT22;46892;45.668;11.756;2023-05-07T01:25:54;16.80;79.30
55313;DHT22;46892;45.668;11.756;2023-05-07T01:28:20;16.70;79.30
55313;DHT22;46892;45.668;11.756;2023-05-07T01:30:52;16.60;78.80
55313;DHT22;46892;45.668;11.756;2023-05-07T01:33:20;16.30;79.00
55313;DHT22;46892;45.668;11.756;2023-05-07T01:35:52;16.20;79.10
55313;DHT22;46892;45.668;11.756;2023-05-07T01:38:19;16.20;79.40
55313;DHT22;46892;45.668;11.756;2023-05-07T01:40:46;16.20;79.40
55313;DHT22;46892;45.668;11.756;2023-05-07T01:43:12;16.20;79.70
55313;DHT22;46892;45.668;11.756;2023-05-07T01:45:38;16.20;80.00
55313;DHT22;46892;45.668;11.756;2023-05-07T01:48:04;16.20;80.10
55313;DHT22;46892;45.668;11.756;2023-05-07T01:50:31;16.30;80.20
55313;DHT22;46892;45.668;11.756;2023-05-07T01:52:57;16.30;80.10
55313;DHT22;46892;45.668;11.756;2023-05-07T01:55:23;16.30;80.10
55313;DHT22;46892;45.668;11.756;2023-05-07T01:57:49;16.30;79.70
55313;DHT22;46892;45.668;11.756;2023-05-07T02:00:15;16.30;79.10
55313;DHT22;46892;45.668;11.756;2023-05-07T02:02:40;16.30;79.00
55313;DHT22;46892;45.668;11.756;2023-05-07T02:05:06;16.30;79.60
55313;DHT22;46892;45.668;11.756;2023-05-07T02:07:32;16.30;78.80
55313;DHT22;46892;45.668;11.756;2023-05-07T02:09:58;16.20;78.70
55313;DHT22;46892;45.668;11.756;2023-05-07T02:12:23;16.10;78.50
55313;DHT22;46892;45.668;11.756;2023-05-07T02:14:49;16.10;79.10
55313;DHT22;46892;45.668;11.756;2023-05-07T02:17:15;16.10;79.30
55313;DHT22;46892;45.668;11.756;2023-05-07T02:19:41;16.10;79.60
55313;DHT22;46892;45.668;11.756;2023-05-07T02:22:07;16.20;79.40
55313;DHT22;46892;45.668;11.756;2023-05-07T02:24:32;16.20;79.20
55313;DHT22;46892;45.668;11.756;2023-05-07T02:26:58;16.00;78.80
55313;DHT22;46892;45.668;11.756;2023-05-07T02:29:24;16.00;78.70
55313;DHT22;46892;45.668;11.756;2023-05-07T02:31:49;16.00;78.00
55313;DHT22;46892;45.668;11.756;2023-05-07T02:34:16;16.00;78.50
55313;DHT22;46892;45.668;11.756;2023-05-07T02:36:42;16.00;79.00
55313;DHT22;46892;45.668;11.756;2023-05-07T02:39:08;16.00;78.90
55313;DHT22;46892;45.668;11.756;2023-05-07T02:41:34;16.10;78.90
55313;DHT22;46892;45.668;11.756;2023-05-07T02:44:00;16.20;78.90
55313;DHT22;46892;45.668;11.756;2023-05-07T02:46:25;16.20;78.90
55313;DHT22;46892;45.668;11.756;2023-05-07T02:48:51;16.30;78.60
55313;DHT22;46892;45.668;11.756;2023-05-07T02:51:21;16.30;79.10
55313;DHT22;46892;45.668;11.756;2023-05-07T02:53:47;16.30;79.10
55313;DHT22;46892;45.668;11.756;2023-05-07T02:56:12;16.30;78.90
55313;DHT22;46892;45.668;11.756;2023-05-07T02:58:38;16.30;79.20
55313;DHT22;46892;45.668;11.756;2023-05-07T03:01:08;16.20;78.70
55313;DHT22;46892;45.668;11.756;2023-05-07T03:03:34;16.20;79.10
55313;DHT22;46892;45.668;11.756;2023-05-07T03:06:00;16.30;79.00
55313;DHT22;46892;45.668;11.756;2023-05-07T03:08:26;16.10;78.50
55313;DHT22;46892;45.668;11.756;2023-05-07T03:10:51;16.00;78.80
55313;DHT22;46892;45.668;11.756;2023-05-07T03:13:17;15.80;79.10
55313;DHT22;46892;45.668;11.756;2023-05-07T03:15:43;15.80;79.40
55313;DHT22;46892;45.668;11.756;2023-05-07T03:18:09;15.80;79.50
55313;DHT22;46892;45.668;11.756;2023-05-07T03:20:34;15.80;79.80
55313;DHT22;46892;45.668;11.756;2023-05-07T03:23:01;15.70;80.20
55313;DHT22;46892;45.668;11.756;2023-05-07T03:25:27;15.80;80.00
55313;DHT22;46892;45.668;11.756;2023-05-07T03:27:53;15.80;80.10
55313;DHT22;46892;45.668;11.756;2023-05-07T03:30:19;15.80;80.30
55313;DHT22;46892;45.668;11.756;2023-05-07T03:32:45;15.80;80.10
55313;DHT22;46892;45.668;11.756;2023-05-07T03:35:11;15.80;80.20
55313;DHT22;46892;45.668;11.756;2023-05-07T03:37:38;15.80;79.90
55313;DHT22;46892;45.668;11.756;2023-05-07T03:40:04;15.80;79.10
55313;DHT22;46892;45.668;11.756;2023-05-07T03:42:30;15.80;79.80
55313;DHT22;46892;45.668;11.756;2023-05-07T03:44:55;15.70;80.20
55313;DHT22;46892;45.668;11.756;2023-05-07T03:47:21;15.60;80.80
55313;DHT22;46892;45.668;11.756;2023-05-07T03:49:47;15.60;80.90
55313;DHT22;46892;45.668;11.756;2023-05-07T03:52:14;15.50;80.80
55313;DHT22;46892;45.668;11.756;2023-05-07T03:54:40;15.60;80.50
55313;DHT22;46892;45.668;11.756;2023-05-07T03:57:05;15.50;80.50
55313;DHT22;46892;45.668;11.756;2023-05-07T03:59:31;15.50;80.40
55313;DHT22;46892;45.668;11.756;2023-05-07T04:01:57;15.40;81.10
55313;DHT22;46892;45.668;11.756;2023-05-07T04:04:23;15.50;80.60
55313;DHT22;46892;45.668;11.756;2023-05-07T04:06:49;15.40;81.30
55313;DHT22;46892;45.668;11.756;2023-05-07T04:09:14;15.50;81.10
55313;DHT22;46892;45.668;11.756;2023-05-07T04:11:40;15.30;81.40
55313;DHT22;46892;45.668;11.756;2023-05-07T04:14:06;15.30;80.70
55313;DHT22;46892;45.668;11.756;2023-05-07T04:16:32;15.20;81.60
55313;DHT22;46892;45.668;11.756;2023-05-07T04:18:57;15.30;82.10
55313;DHT22;46892;45.668;11.756;2023-05-07T04:21:23;15.30;81.60
55313;DHT22;46892;45.668;11.756;2023-05-07T04:23:49;15.30;82.00
55313;DHT22;46892;45.668;11.756;2023-05-07T04:26:15;15.30;81.90
55313;DHT22;46892;45.668;11.756;2023-05-07T04:28:42;15.30;81.90
55313;DHT22;46892;45.668;11.756;2023-05-07T04:31:08;15.40;82.10
55313;DHT22;46892;45.668;11.756;2023-05-07T04:33:34;15.50;80.90
55313;DHT22;46892;45.668;11.756;2023-05-07T04:36:04;15.50;81.40
55313;DHT22;46892;45.668;11.756;2023-05-07T04:38:30;15.60;81.40
55313;DHT22;46892;45.668;11.756;2023-05-07T04:40:57;15.70;81.20
55313;DHT22;46892;45.668;11.756;2023-05-07T04:43:23;15.80;79.80
55313;DHT22;46892;45.668;11.756;2023-05-07T04:45:51;15.80;80.30
55313;DHT22;46892;45.668;11.756;2023-05-07T04:48:17;15.90;80.90
55313;DHT22;46892;45.668;11.756;2023-05-07T04:50:46;16.00;80.60
55313;DHT22;46892;45.668;11.756;2023-05-07T04:53:12;16.00;80.90
55313;DHT22;46892;45.668;11.756;2023-05-07T04:55:38;16.10;80.90
55313;DHT22;46892;45.668;11.756;2023-05-07T04:58:03;16.20;80.50
55313;DHT22;46892;45.668;11.756;2023-05-07T05:00:30;16.30;80.50
55313;DHT22;46892;45.668;11.756;2023-05-07T05:02:56;16.40;80.20
55313;DHT22;46892;45.668;11.756;2023-05-07T05:05:21;16.50;79.80
55313;DHT22;46892;45.668;11.756;2023-05-07T05:07:47;16.70;79.40
55313;DHT22;46892;45.668;11.756;2023-05-07T05:10:12;16.80;79.70
55313;DHT22;46892;45.668;11.756;2023-05-07T05:12:38;17.20;78.70
55313;DHT22;46892;45.668;11.756;2023-05-07T05:15:05;17.30;77.50
55313;DHT22;46892;45.668;11.756;2023-05-07T05:17:30;17.40;77.40
55313;DHT22;46892;45.668;11.756;2023-05-07T05:19:56;17.40;77.30
55313;DHT22;46892;45.668;11.756;2023-05-07T05:22:22;17.30;77.70
55313;DHT22;46892;45.668;11.756;2023-05-07T05:24:47;17.20;77.60
55313;DHT22;46892;45.668;11.756;2023-05-07T05:27:13;17.20;77.70
55313;DHT22;46892;45.668;11.756;2023-05-07T05:29:39;17.20;78.40
55313;DHT22;46892;45.668;11.756;2023-05-07T05:32:04;17.10;78.50
55313;DHT22;46892;45.668;11.756;2023-05-07T05:34:30;17.10;78.10
55313;DHT22;46892;45.668;11.756;2023-05-07T05:36:56;17.10;78.70
55313;DHT22;46892;45.668;11.756;2023-05-07T05:39:22;17.10;78.40
55313;DHT22;46892;45.668;11.756;2023-05-07T05:41:48;17.10;79.30
55313;DHT22;46892;45.668;11.756;2023-05-07T05:44:14;17.20;79.10
55313;DHT22;46892;45.668;11.756;2023-05-07T05:46:39;17.30;78.00
55313;DHT22;46892;45.668;11.756;2023-05-07T05:49:05;17.50;78.30
55313;DHT22;46892;45.668;11.756;2023-05-07T05:51:31;17.70;78.50
55313;DHT22;46892;45.668;11.756;2023-05-07T05:53:57;17.80;78.20
55313;DHT22;46892;45.668;11.756;2023-05-07T05:56:22;18.00;77.20
55313;DHT22;46892;45.668;11.756;2023-05-07T05:58:48;18.00;77.60
55313;DHT22;46892;45.668;11.756;2023-05-07T06:01:13;18.10;76.90
55313;DHT22;46892;45.668;11.756;2023-05-07T06:03:39;18.30;76.60
55313;DHT22;46892;45.668;11.756;2023-05-07T06:06:05;18.60;76.50
55313;DHT22;46892;45.668;11.756;2023-05-07T06:08:31;18.80;76.10
55313;DHT22;46892;45.668;11.756;2023-05-07T06:10:57;19.00;75.20
55313;DHT22;46892;45.668;11.756;2023-05-07T06:13:22;19.20;74.90
55313;DHT22;46892;45.668;11.756;2023-05-07T06:15:49;19.50;73.60
55313;DHT22;46892;45.668;11.756;2023-05-07T06:18:15;19.70;73.70
55313;DHT22;46892;45.668;11.756;2023-05-07T06:20:40;20.00;71.00
55313;DHT22;46892;45.668;11.756;2023-05-07T06:23:06;20.20;70.60
55313;DHT22;46892;45.668;11.756;2023-05-07T06:25:32;20.30;68.50
55313;DHT22;46892;45.668;11.756;2023-05-07T06:27:57;20.50;68.40
55313;DHT22;46892;45.668;11.756;2023-05-07T06:30:23;20.70;68.10
55313;DHT22;46892;45.668;11.756;2023-05-07T06:32:49;20.70;68.10
55313;DHT22;46892;45.668;11.756;2023-05-07T06:35:14;20.80;66.60
55313;DHT22;46892;45.668;11.756;2023-05-07T06:37:41;20.90;67.00
55313;DHT22;46892;45.668;11.756;2023-05-07T06:40:08;21.00;65.90
55313;DHT22;46892;45.668;11.756;2023-05-07T06:42:35;21.10;66.20
55313;DHT22;46892;45.668;11.756;2023-05-07T06:45:01;21.20;67.00
55313;DHT22;46892;45.668;11.756;2023-05-07T06:47:26;21.30;65.80
55313;DHT22;46892;45.668;11.756;2023-05-07T06:49:52;21.50;69.40
55313;DHT22;46892;45.668;11.756;2023-05-07T06:52:17;21.70;67.80
55313;DHT22;46892;45.668;11.756;2023-05-07T06:54:43;21.80;64.10
55313;DHT22;46892;45.668;11.756;2023-05-07T06:57:09;21.70;65.10
55313;DHT22;46892;45.668;11.756;2023-05-07T06:59:34;21.60;65.20
55313;DHT22;46892;45.668;11.756;2023-05-07T07:02:00;21.70;67.80
55313;DHT22;46892;45.668;11.756;2023-05-07T07:04:26;21.80;67.80
55313;DHT22;46892;45.668;11.756;2023-05-07T07:06:54;22.10;66.60
55313;DHT22;46892;45.668;11.756;2023-05-07T07:09:20;22.40;64.20
55313;DHT22;46892;45.668;11.756;2023-05-07T07:11:46;22.50;65.00
55313;DHT22;46892;45.668;11.756;2023-05-07T07:14:11;22.60;64.80
55313;DHT22;46892;45.668;11.756;2023-05-07T07:16:37;22.80;63.20
55313;DHT22;46892;45.668;11.756;2023-05-07T07:19:02;22.80;65.90
55313;DHT22;46892;45.668;11.756;2023-05-07T07:21:28;22.90;62.80
55313;DHT22;46892;45.668;11.756;2023-05-07T07:23:54;22.80;61.00
55313;DHT22;46892;45.668;11.756;2023-05-07T07:26:19;22.60;60.20
55313;DHT22;46892;45.668;11.756;2023-05-07T07:28:46;22.50;60.20
55313;DHT22;46892;45.668;11.756;2023-05-07T07:31:12;22.40;59.90
55313;DHT22;46892;45.668;11.756;2023-05-07T07:33:38;22.30;61.20
55313;DHT22;46892;45.668;11.756;2023-05-07T07:36:05;22.20;62.00
55313;DHT22;46892;45.668;11.756;2023-05-07T07:38:31;22.10;62.20
55313;DHT22;46892;45.668;11.756;2023-05-07T07:40:56;22.20;62.90
55313;DHT22;46892;45.668;11.756;2023-05-07T07:43:22;22.40;64.20
55313;DHT22;46892;45.668;11.756;2023-05-07T07:45:48;22.40;63.60
55313;DHT22;46892;45.668;11.756;2023-05-07T07:48:13;22.40;64.50
55313;DHT22;46892;45.668;11.756;2023-05-07T07:50:39;22.30;65.20
55313;DHT22;46892;45.668;11.756;2023-05-07T07:53:05;22.30;65.10
55313;DHT22;46892;45.668;11.756;2023-05-07T07:55:30;22.30;66.50
55313;DHT22;46892;45.668;11.756;2023-05-07T07:57:57;22.30;64.10
55313;DHT22;46892;45.668;11.756;2023-05-07T08:00:23;22.30;65.80
55313;DHT22;46892;45.668;11.756;2023-05-07T08:02:48;22.00;65.40
55313;DHT22;46892;45.668;11.756;2023-05-07T08:05:14;21.80;65.70
55313;DHT22;46892;45.668;11.756;2023-05-07T08:07:42;21.80;67.20
55313;DHT22;46892;45.668;11.756;2023-05-07T08:10:08;21.70;67.10
55313;DHT22;46892;45.668;11.756;2023-05-07T08:12:33;21.70;67.20
55313;DHT22;46892;45.668;11.756;2023-05-07T08:14:59;21.50;66.40
55313;DHT22;46892;45.668;11.756;2023-05-07T08:17:25;21.50;67.30
55313;DHT22;46892;45.668;11.756;2023-05-07T08:19:50;21.50;68.40
55313;DHT22;46892;45.668;11.756;2023-05-07T08:22:16;21.40;68.10
55313;DHT22;46892;45.668;11.756;2023-05-07T08:24:43;21.40;67.40
55313;DHT22;46892;45.668;11.756;2023-05-07T08:27:10;21.40;68.00
55313;DHT22;46892;45.668;11.756;2023-05-07T08:29:35;21.50;68.10
55313;DHT22;46892;45.668;11.756;2023-05-07T08:32:01;21.30;66.10
55313;DHT22;46892;45.668;11.756;2023-05-07T08:34:27;21.30;66.50
55313;DHT22;46892;45.668;11.756;2023-05-07T08:36:52;21.40;66.20
55313;DHT22;46892;45.668;11.756;2023-05-07T08:39:18;21.40;68.10
55313;DHT22;46892;45.668;11.756;2023-05-07T08:41:44;21.40;67.00
55313;DHT22;46892;45.668;11.756;2023-05-07T08:44:12;21.50;67.40
55313;DHT22;46892;45.668;11.756;2023-05-07T08:46:39;21.60;59.10
55313;DHT22;46892;45.668;11.756;2023-05-07T08:49:07;21.60;59.10
55313;DHT22;46892;45.668;11.756;2023-05-07T08:51:33;21.70;57.50
55313;DHT22;46892;45.668;11.756;2023-05-07T08:53:59;21.70;59.50
55313;DHT22;46892;45.668;11.756;2023-05-07T08:56:26;21.80;57.20
55313;DHT22;46892;45.668;11.756;2023-05-07T08:58:52;21.80;58.80
55313;DHT22;46892;45.668;11.756;2023-05-07T09:01:22;21.80;56.70
55313;DHT22;46892;45.668;11.756;2023-05-07T09:03:47;21.90;55.70
55313;DHT22;46892;45.668;11.756;2023-05-07T09:06:13;21.90;55.00
55313;DHT22;46892;45.668;11.756;2023-05-07T09:08:39;22.10;56.90
55313;DHT22;46892;45.668;11.756;2023-05-07T09:11:05;22.20;54.10
55313;DHT22;46892;45.668;11.756;2023-05-07T09:13:31;22.30;55.90
55313;DHT22;46892;45.668;11.756;2023-05-07T09:15:56;22.30;56.70
55313;DHT22;46892;45.668;11.756;2023-05-07T09:18:25;22.30;55.20
55313;DHT22;46892;45.668;11.756;2023-05-07T09:20:51;22.30;55.40
55313;DHT22;46892;45.668;11.756;2023-05-07T09:23:17;22.30;55.40
55313;DHT22;46892;45.668;11.756;2023-05-07T09:25:42;22.40;58.60
55313;DHT22;46892;45.668;11.756;2023-05-07T09:28:08;22.50;59.70
55313;DHT22;46892;45.668;11.756;2023-05-07T09:30:35;22.50;59.60
55313;DHT22;46892;45.668;11.756;2023-05-07T09:33:02;22.50;58.90
55313;DHT22;46892;45.668;11.756;2023-05-07T09:35:29;22.60;60.90
55313;DHT22;46892;45.668;11.756;2023-05-07T09:37:57;22.70;58.30
55313;DHT22;46892;45.668;11.756;2023-05-07T09:40:27;22.70;59.10
55313;DHT22;46892;45.668;11.756;2023-05-07T09:42:53;22.80;57.50
55313;DHT22;46892;45.668;11.756;2023-05-07T09:45:36;22.80;57.50
55313;DHT22;46892;45.668;11.756;2023-05-07T09:48:05;22.90;58.40
55313;DHT22;46892;45.668;11.756;2023-05-07T09:50:45;23.00;59.70
55313;DHT22;46892;45.668;11.756;2023-05-07T09:53:14;23.20;60.70
55313;DHT22;46892;45.668;11.756;2023-05-07T09:55:41;23.30;60.00
55313;DHT22;46892;45.668;11.756;2023-05-07T09:58:07;23.40;56.90
55313;DHT22;46892;45.668;11.756;2023-05-07T10:00:35;23.60;56.10
55313;DHT22;46892;45.668;11.756;2023-05-07T10:03:01;23.70;57.30
55313;DHT22;46892;45.668;11.756;2023-05-07T10:05:28;23.90;57.60
55313;DHT22;46892;45.668;11.756;2023-05-07T10:07:54;24.00;56.40
55313;DHT22;46892;45.668;11.756;2023-05-07T10:10:21;24.20;58.00
55313;DHT22;46892;45.668;11.756;2023-05-07T10:12:47;24.10;51.40
55313;DHT22;46892;45.668;11.756;2023-05-07T10:15:13;24.10;54.50
55313;DHT22;46892;45.668;11.756;2023-05-07T10:17:40;24.00;51.90
55313;DHT22;46892;45.668;11.756;2023-05-07T10:20:07;23.90;51.90
55313;DHT22;46892;45.668;11.756;2023-05-07T10:22:39;23.80;53.00
55313;DHT22;46892;45.668;11.756;2023-05-07T10:25:16;23.80;56.40
55313;DHT22;46892;45.668;11.756;2023-05-07T10:27:45;23.80;59.30
55313;DHT22;46892;45.668;11.756;2023-05-07T10:33:00;23.90;60.00
55313;DHT22;46892;45.668;11.756;2023-05-07T10:35:32;24.00;56.70
55313;DHT22;46892;45.668;11.756;2023-05-07T10:38:01;24.20;55.60
55313;DHT22;46892;45.668;11.756;2023-05-07T10:40:27;24.30;55.10
55313;DHT22;46892;45.668;11.756;2023-05-07T10:42:58;24.30;52.90
55313;DHT22;46892;45.668;11.756;2023-05-07T10:45:25;24.20;52.20
55313;DHT22;46892;45.668;11.756;2023-05-07T10:50:37;24.20;53.30
55313;DHT22;46892;45.668;11.756;2023-05-07T10:55:48;23.90;57.20
55313;DHT22;46892;45.668;11.756;2023-05-07T10:58:26;23.90;55.60
55313;DHT22;46892;45.668;11.756;2023-05-07T11:01:00;24.00;53.20
55313;DHT22;46892;45.668;11.756;2023-05-07T11:03:26;23.90;52.90
55313;DHT22;46892;45.668;11.756;2023-05-07T11:06:11;23.90;55.60
55313;DHT22;46892;45.668;11.756;2023-05-07T11:08:54;24.00;59.00
55313;DHT22;46892;45.668;11.756;2023-05-07T11:11:32;24.10;58.50
55313;DHT22;46892;45.668;11.756;2023-05-07T11:14:05;24.10;55.20
55313;DHT22;46892;45.668;11.756;2023-05-07T11:16:32;24.00;57.40
55313;DHT22;46892;45.668;11.756;2023-05-07T11:19:01;24.00;55.70
55313;DHT22;46892;45.668;11.756;2023-05-07T11:21:37;24.00;60.90
55313;DHT22;46892;45.668;11.756;2023-05-07T11:24:04;23.90;56.50
55313;DHT22;46892;45.668;11.756;2023-05-07T11:26:41;23.80;57.60
55313;DHT22;46892;45.668;11.756;2023-05-07T11:29:33;23.80;61.40
55313;DHT22;46892;45.668;11.756;2023-05-07T11:32:00;23.80;56.80
55313;DHT22;46892;45.668;11.756;2023-05-07T11:34:27;23.70;57.00
55313;DHT22;46892;45.668;11.756;2023-05-07T11:36:53;23.70;60.20
55313;DHT22;46892;45.668;11.756;2023-05-07T11:39:31;23.70;58.90
55313;DHT22;46892;45.668;11.756;2023-05-07T11:41:59;23.70;62.40
55313;DHT22;46892;45.668;11.756;2023-05-07T11:44:25;23.80;63.50
55313;DHT22;46892;45.668;11.756;2023-05-07T11:46:51;23.80;61.20
55313;DHT22;46892;45.668;11.756;2023-05-07T11:49:17;24.00;62.10
55313;DHT22;46892;45.668;11.756;2023-05-07T11:51:42;24.10;59.80
55313;DHT22;46892;45.668;11.756;2023-05-07T11:54:09;24.20;59.20
55313;DHT22;46892;45.668;11.756;2023-05-07T11:56:37;24.30;58.40
55313;DHT22;46892;45.668;11.756;2023-05-07T11:59:02;24.40;58.80
55313;DHT22;46892;45.668;11.756;2023-05-07T12:01:28;24.40;58.40
55313;DHT22;46892;45.668;11.756;2023-05-07T12:03:54;24.40;57.90
55313;DHT22;46892;45.668;11.756;2023-05-07T12:06:20;24.50;56.00
55313;DHT22;46892;45.668;11.756;2023-05-07T12:08:46;24.40;55.10
55313;DHT22;46892;45.668;11.756;2023-05-07T12:11:16;24.40;56.50
55313;DHT22;46892;45.668;11.756;2023-05-07T12:13:43;24.50;59.20
55313;DHT22;46892;45.668;11.756;2023-05-07T12:16:09;24.40;58.40
55313;DHT22;46892;45.668;11.756;2023-05-07T12:18:36;24.40;55.30
55313;DHT22;46892;45.668;11.756;2023-05-07T12:21:03;24.50;56.80
55313;DHT22;46892;45.668;11.756;2023-05-07T12:23:29;24.70;57.50
55313;DHT22;46892;45.668;11.756;2023-05-07T12:25:55;24.80;59.00
55313;DHT22;46892;45.668;11.756;2023-05-07T12:28:21;24.80;58.20
55313;DHT22;46892;45.668;11.756;2023-05-07T12:30:48;24.90;59.30
55313;DHT22;46892;45.668;11.756;2023-05-07T12:33:22;25.20;62.00
55313;DHT22;46892;45.668;11.756;2023-05-07T12:35:49;25.20;53.80
55313;DHT22;46892;45.668;11.756;2023-05-07T12:38:16;25.20;56.50
55313;DHT22;46892;45.668;11.756;2023-05-07T12:40:47;25.20;55.40
55313;DHT22;46892;45.668;11.756;2023-05-07T12:43:28;25.20;57.40
55313;DHT22;46892;45.668;11.756;2023-05-07T12:46:05;25.30;59.90
55313;DHT22;46892;45.668;11.756;2023-05-07T12:48:31;25.30;57.00
55313;DHT22;46892;45.668;11.756;2023-05-07T12:50:59;25.20;58.10
55313;DHT22;46892;45.668;11.756;2023-05-07T12:53:26;25.20;61.20
55313;DHT22;46892;45.668;11.756;2023-05-07T12:55:54;25.20;58.40
55313;DHT22;46892;45.668;11.756;2023-05-07T12:58:31;25.20;58.40
55313;DHT22;46892;45.668;11.756;2023-05-07T13:00:59;25.10;54.50
55313;DHT22;46892;45.668;11.756;2023-05-07T13:03:30;25.00;57.80
55313;DHT22;46892;45.668;11.756;2023-05-07T13:06:01;25.00;59.90
55313;DHT22;46892;45.668;11.756;2023-05-07T13:08:37;25.00;57.30
55313;DHT22;46892;45.668;11.756;2023-05-07T13:11:07;25.10;58.00
55313;DHT22;46892;45.668;11.756;2023-05-07T13:13:35;25.10;58.20
55313;DHT22;46892;45.668;11.756;2023-05-07T13:16:02;25.20;59.70
55313;DHT22;46892;45.668;11.756;2023-05-07T13:18:32;25.20;61.10
55313;DHT22;46892;45.668;11.756;2023-05-07T13:20:58;25.20;59.70
55313;DHT22;46892;45.668;11.756;2023-05-07T13:23:24;25.30;58.80
55313;DHT22;46892;45.668;11.756;2023-05-07T13:25:50;25.30;54.80
55313;DHT22;46892;45.668;11.756;2023-05-07T13:28:17;25.30;60.20
55313;DHT22;46892;45.668;11.756;2023-05-07T13:30:44;25.30;57.70
55313;DHT22;46892;45.668;11.756;2023-05-07T13:33:09;25.40;60.60
55313;DHT22;46892;45.668;11.756;2023-05-07T13:35:35;25.50;59.10
55313;DHT22;46892;45.668;11.756;2023-05-07T13:38:01;25.60;60.00
55313;DHT22;46892;45.668;11.756;2023-05-07T13:40:26;25.80;59.40
55313;DHT22;46892;45.668;11.756;2023-05-07T13:42:54;25.80;57.00
55313;DHT22;46892;45.668;11.756;2023-05-07T13:45:19;25.90;58.70
55313;DHT22;46892;45.668;11.756;2023-05-07T13:47:46;26.00;56.10
55313;DHT22;46892;45.668;11.756;2023-05-07T13:50:12;26.00;54.40
55313;DHT22;46892;45.668;11.756;2023-05-07T13:52:41;25.90;57.30
55313;DHT22;46892;45.668;11.756;2023-05-07T13:55:07;26.00;58.90
55313;DHT22;46892;45.668;11.756;2023-05-07T13:57:33;26.00;57.80
55313;DHT22;46892;45.668;11.756;2023-05-07T13:59:59;26.00;55.90
55313;DHT22;46892;45.668;11.756;2023-05-07T14:02:24;26.00;58.00
55313;DHT22;46892;45.668;11.756;2023-05-07T14:04:50;26.00;57.40
55313;DHT22;46892;45.668;11.756;2023-05-07T14:07:15;26.00;56.80
55313;DHT22;46892;45.668;11.756;2023-05-07T14:09:41;26.10;57.00
55313;DHT22;46892;45.668;11.756;2023-05-07T14:12:07;26.10;52.80
55313;DHT22;46892;45.668;11.756;2023-05-07T14:14:32;26.10;56.90
55313;DHT22;46892;45.668;11.756;2023-05-07T14:16:58;26.00;55.60
55313;DHT22;46892;45.668;11.756;2023-05-07T14:19:24;25.90;52.40
55313;DHT22;46892;45.668;11.756;2023-05-07T14:21:49;25.70;53.00
55313;DHT22;46892;45.668;11.756;2023-05-07T14:24:15;25.60;56.50
55313;DHT22;46892;45.668;11.756;2023-05-07T14:26:40;25.50;54.80
55313;DHT22;46892;45.668;11.756;2023-05-07T14:29:06;25.30;53.60
55313;DHT22;46892;45.668;11.756;2023-05-07T14:31:32;25.20;54.90
55313;DHT22;46892;45.668;11.756;2023-05-07T14:33:58;25.30;58.30
55313;DHT22;46892;45.668;11.756;2023-05-07T14:36:24;25.50;57.80
55313;DHT22;46892;45.668;11.756;2023-05-07T14:38:52;25.60;58.60
55313;DHT22;46892;45.668;11.756;2023-05-07T14:41:19;25.60;54.80
55313;DHT22;46892;45.668;11.756;2023-05-07T14:43:46;25.50;52.30
55313;DHT22;46892;45.668;11.756;2023-05-07T14:46:18;25.30;50.30
55313;DHT22;46892;45.668;11.756;2023-05-07T14:48:45;25.40;58.40
55313;DHT22;46892;45.668;11.756;2023-05-07T14:51:12;25.40;55.60
55313;DHT22;46892;45.668;11.756;2023-05-07T14:53:38;25.50;58.30
55313;DHT22;46892;45.668;11.756;2023-05-07T14:56:04;25.50;53.80
55313;DHT22;46892;45.668;11.756;2023-05-07T14:58:30;25.50;53.90
55313;DHT22;46892;45.668;11.756;2023-05-07T15:00:56;25.50;56.80
55313;DHT22;46892;45.668;11.756;2023-05-07T15:03:22;25.30;54.70
55313;DHT22;46892;45.668;11.756;2023-05-07T15:05:48;25.20;57.00
55313;DHT22;46892;45.668;11.756;2023-05-07T15:08:16;25.20;60.00
55313;DHT22;46892;45.668;11.756;2023-05-07T15:10:41;25.30;55.50
55313;DHT22;46892;45.668;11.756;2023-05-07T15:13:11;25.20;55.40
55313;DHT22;46892;45.668;11.756;2023-05-07T15:15:38;25.20;56.00
55313;DHT22;46892;45.668;11.756;2023-05-07T15:18:04;25.10;54.30
55313;DHT22;46892;45.668;11.756;2023-05-07T15:20:30;25.20;56.80